Terminal Aerodrome Forecast
Issued by NWS

Current Version | Previous Version | Text Only | Print | Product List | Glossary On
Versions: 1 2 3 4 5 6 7 8 9 10 11 12 13 14 15 16 17 18 19 20 21 22 23 24
000
FTUS41 KBUF 242338
TAFJHW
TAF
KJHW 242338Z 2500/2524 24008KT P6SM OVC050 WS020/25040KT
     FM250400 24008KT P6SM VCSH BKN050 WS020/26035KT
     FM250600 25007KT P6SM VCSH OVC007
     FM250800 26005KT 2SM -RA BR OVC007
     FM251400 36006KT 6SM -RA OVC003
     FM251800 06005KT 6SM -RA OVC007
     FM252100 07005KT P6SM VCSH OVC007
      AMD LTD TO CLD VIS AND WIND=

USA.gov is the U.S. government's official web portal to all federal, state and local government web resources and services.